Weather at Philadelphia International Airport

Public forecast

Using degrees Fahrenheit for public forecast. Weather courtesy of forecast.io.

Current aviation weather report (METAR) for Philadelphia International Airport

Retrieved 2020/10/23 22:54 UTC (32 minutes ago):

KPHL 232254Z 20009KT 10SM FEW020 BKN037 BKN044 BKN250 20/17 A3008 RMK AO2 SLP186 T02000167

Aviation forecast (TAF) for Philadelphia International Airport

Retrieved 2020/10/23 18:22 UTC (5 hours ago):

TAF KPHL 231720Z 2318/2424 15006KT P6SM SCT040 TEMPO 2318/2320 BKN020 FM240300 19004KT 6SM BR SCT010 FM240600 20004KT 3SM BR BKN005 FM241400 VRB06KT P6SM BKN015 FM241900 31010G18KT P6SM SCT035